Time;durP1;ratioP1;P1;durP2;ratioP2;P2;SDS_P1;SDS_P2;PMS_P1;PMS_P2;Temp;Humidity;BMP_temperature;BMP_pressure;BME280_temperature;BME280_humidity;BME280_pressure;Samples;Min_cycle;Max_cycle;Signal;HPM_P1;HPM_P2
2022/01/06 00:00:09;;;;;;;10.53;6.93;;;;;;;;;;4970502;28;20559;-69
2022/01/06 00:02:39;;;;;;;10.00;5.23;;;;;;;;;;4971704;28;20471;-69
2022/01/06 00:05:06;;;;;;;10.57;5.70;;;;;;;;;;4970820;28;20444;-69
2022/01/06 00:07:58;;;;;;;9.07;5.87;;;;;;;;;;4971643;28;20960;-69
2022/01/06 00:10:27;;;;;;;8.47;5.17;;;;;;;;;;4952916;29;20426;-69
2022/01/06 00:25:44;;;;;;;10.27;6.37;;;;;;;;;;4971407;28;20491;-69
2022/01/06 00:28:11;;;;;;;8.67;5.60;;;;;;;;;;4971479;28;20448;-69
2022/01/06 00:30:38;;;;;;;12.70;6.80;;;;;;;;;;4971316;28;20488;-68
2022/01/06 00:33:04;;;;;;;10.03;5.90;;;;;;;;;;4971631;28;20868;-69
2022/01/06 00:35:31;;;;;;;12.30;7.53;;;;;;;;;;4970957;28;20488;-69
2022/01/06 00:37:58;;;;;;;12.00;6.60;;;;;;;;;;4971242;28;20475;-69
2022/01/06 00:40:25;;;;;;;10.57;6.67;;;;;;;;;;4971036;28;21174;-69
2022/01/06 00:42:52;;;;;;;9.43;6.17;;;;;;;;;;4971149;28;20503;-69
2022/01/06 00:45:18;;;;;;;16.10;7.77;;;;;;;;;;4971564;28;20713;-69
2022/01/06 00:47:45;;;;;;;12.00;6.40;;;;;;;;;;4970903;28;20444;-69
2022/01/06 00:50:14;;;;;;;10.97;7.50;;;;;;;;;;4971113;28;20824;-69
2022/01/06 00:52:41;;;;;;;10.47;6.37;;;;;;;;;;4969723;28;20445;-69
2022/01/06 00:55:08;;;;;;;15.50;8.13;;;;;;;;;;4970182;28;20429;-69
2022/01/06 00:57:34;;;;;;;11.87;7.87;;;;;;;;;;4970230;28;21121;-69
2022/01/06 01:00:01;;;;;;;11.50;6.77;;;;;;;;;;4970796;28;20440;-68
2022/01/06 01:02:28;;;;;;;12.53;7.90;;;;;;;;;;4970823;28;20971;-69
2022/01/06 01:36:51;;;;;;;11.83;7.03;;;;;;;;;;4962864;28;20455;-69
2022/01/06 01:39:18;;;;;;;10.93;6.40;;;;;;;;;;4969914;28;20480;-69
2022/01/06 01:41:44;;;;;;;10.13;6.63;;;;;;;;;;4970630;28;20446;-69
2022/01/06 01:44:13;;;;;;;10.67;7.27;;;;;;;;;;4970372;28;20479;-69
2022/01/06 01:46:45;;;;;;;12.43;7.80;;;;;;;;;;4968968;28;20774;-69
2022/01/06 01:49:17;;;;;;;10.60;6.57;;;;;;;;;;4970483;28;20537;-69
2022/01/06 01:51:44;;;;;;;10.97;6.90;;;;;;;;;;4969906;28;20441;-69
2022/01/06 01:54:10;;;;;;;11.23;7.30;;;;;;;;;;4970402;28;20455;-69
2022/01/06 01:56:37;;;;;;;11.33;6.23;;;;;;;;;;4970492;28;20448;-69
2022/01/06 01:59:04;;;;;;;8.77;6.67;;;;;;;;;;4970599;28;20439;-69
2022/01/06 02:01:31;;;;;;;8.90;5.67;;;;;;;;;;4969645;28;20528;-69
2022/01/06 02:03:57;;;;;;;9.60;6.17;;;;;;;;;;4970461;28;20441;-69
2022/01/06 02:06:24;;;;;;;8.60;5.80;;;;;;;;;;4970197;28;20597;-69
2022/01/06 02:08:51;;;;;;;12.03;5.77;;;;;;;;;;4970461;28;20441;-69
2022/01/06 02:11:18;;;;;;;6.73;5.30;;;;;;;;;;4972187;28;20444;-69
2022/01/06 02:13:48;;;;;;;6.83;4.53;;;;;;;;;;4972763;28;20437;-69
2022/01/06 02:16:24;;;;;;;7.47;4.60;;;;;;;;;;4972792;28;20863;-69
2022/01/06 02:18:51;;;;;;;6.37;4.57;;;;;;;;;;4972616;28;20473;-69
2022/01/06 02:21:17;;;;;;;5.03;3.83;;;;;;;;;;4973720;28;20429;-69
2022/01/06 02:23:44;;;;;;;4.53;3.30;;;;;;;;;;4973949;28;20478;-69
2022/01/06 02:26:11;;;;;;;4.30;3.50;;;;;;;;;;4973445;28;20435;-70
2022/01/06 02:28:37;;;;;;;3.53;2.93;;;;;;;;;;4972622;28;20451;-70
2022/01/06 02:31:04;;;;;;;3.97;3.00;;;;;;;;;;4973527;28;20443;-70
2022/01/06 02:33:31;;;;;;;2.47;1.60;;;;;;;;;;4970878;28;20537;-70
2022/01/06 02:35:58;;;;;;;3.90;2.10;;;;;;;;;;4971313;28;20448;-70
2022/01/06 02:38:24;;;;;;;3.10;2.13;;;;;;;;;;4972400;28;20574;-70
2022/01/06 02:40:51;;;;;;;3.70;2.13;;;;;;;;;;4973328;28;20503;-70
2022/01/06 02:43:18;;;;;;;1.77;1.43;;;;;;;;;;4974831;28;20509;-70
2022/01/06 02:45:45;;;;;;;2.23;1.83;;;;;;;;;;4972688;28;20516;-70
2022/01/06 02:48:14;;;;;;;1.53;1.37;;;;;;;;;;4971596;28;20483;-69
2022/01/06 02:50:41;;;;;;;3.30;1.70;;;;;;;;;;4973413;28;20465;-70
2022/01/06 02:53:08;;;;;;;1.40;1.20;;;;;;;;;;4970991;28;20467;-70
2022/01/06 02:55:36;;;;;;;4.00;1.30;;;;;;;;;;4973585;28;20913;-70
2022/01/06 02:58:03;;;;;;;1.33;1.20;;;;;;;;;;4972825;28;20461;-70
2022/01/06 03:00:30;;;;;;;1.37;1.00;;;;;;;;;;4968482;28;20500;-70
2022/01/06 03:02:57;;;;;;;1.83;0.90;;;;;;;;;;4961938;28;20942;-70
2022/01/06 03:05:26;;;;;;;1.53;1.00;;;;;;;;;;4971738;28;20467;-70
2022/01/06 03:07:53;;;;;;;1.50;1.00;;;;;;;;;;4972479;28;20440;-70
2022/01/06 03:10:19;;;;;;;1.20;0.87;;;;;;;;;;4973147;28;20421;-70
2022/01/06 03:12:47;;;;;;;2.30;1.00;;;;;;;;;;4972973;28;20447;-70
2022/01/06 03:15:13;;;;;;;1.80;1.00;;;;;;;;;;4972757;28;20444;-70
2022/01/06 03:17:40;;;;;;;1.43;0.90;;;;;;;;;;4971525;28;20535;-70
2022/01/06 03:20:08;;;;;;;2.20;0.90;;;;;;;;;;4971177;28;20486;-70
2022/01/06 03:22:34;;;;;;;2.13;0.83;;;;;;;;;;4971332;28;20444;-69
2022/01/06 03:25:01;;;;;;;2.50;0.80;;;;;;;;;;4971421;28;20457;-70
2022/01/06 03:27:28;;;;;;;2.10;0.80;;;;;;;;;;4972687;28;20445;-70
2022/01/06 03:29:54;;;;;;;2.10;0.50;;;;;;;;;;4972721;28;20441;-70
2022/01/06 03:32:22;;;;;;;1.67;0.70;;;;;;;;;;4972361;28;20449;-70
2022/01/06 03:34:49;;;;;;;2.30;1.07;;;;;;;;;;4959673;28;21092;-70
2022/01/06 03:37:16;;;;;;;2.33;0.80;;;;;;;;;;4970480;28;21064;-70
2022/01/06 03:39:42;;;;;;;1.70;0.50;;;;;;;;;;4972503;28;20508;-70
2022/01/06 03:42:09;;;;;;;0.73;0.37;;;;;;;;;;4972497;28;20451;-70
2022/01/06 03:44:36;;;;;;;1.23;0.47;;;;;;;;;;4970764;28;20472;-69
2022/01/06 03:47:03;;;;;;;2.70;0.67;;;;;;;;;;4971108;28;20790;-69
2022/01/06 03:49:30;;;;;;;0.80;0.60;;;;;;;;;;4971019;28;20471;-69
2022/01/06 03:51:56;;;;;;;1.47;0.60;;;;;;;;;;4971605;28;20897;-70
2022/01/06 03:54:23;;;;;;;3.70;0.80;;;;;;;;;;4971937;28;20494;-69
2022/01/06 03:56:49;;;;;;;1.53;0.80;;;;;;;;;;4971803;28;20503;-70
2022/01/06 03:59:16;;;;;;;2.37;0.80;;;;;;;;;;4972051;28;20468;-69
2022/01/06 04:01:43;;;;;;;1.23;0.73;;;;;;;;;;4971739;28;21024;-69
2022/01/06 04:04:10;;;;;;;1.47;0.97;;;;;;;;;;4970759;28;20468;-69
2022/01/06 04:06:37;;;;;;;2.00;1.27;;;;;;;;;;4971840;28;20444;-69
2022/01/06 04:09:03;;;;;;;5.77;2.40;;;;;;;;;;4971073;28;20495;-69
2022/01/06 04:11:30;;;;;;;4.67;1.33;;;;;;;;;;4971665;28;20437;-69
2022/01/06 04:13:57;;;;;;;3.10;1.10;;;;;;;;;;4971784;28;20488;-69
2022/01/06 04:16:25;;;;;;;3.33;1.30;;;;;;;;;;4971925;28;20441;-69
2022/01/06 04:18:52;;;;;;;2.93;0.90;;;;;;;;;;4971265;28;20995;-70
2022/01/06 04:21:18;;;;;;;3.40;1.40;;;;;;;;;;4971561;28;20447;-69
2022/01/06 04:23:47;;;;;;;2.43;1.20;;;;;;;;;;4971957;28;20494;-70
2022/01/06 04:26:14;;;;;;;2.47;1.80;;;;;;;;;;4970264;28;20456;-70
2022/01/06 04:28:41;;;;;;;2.50;1.60;;;;;;;;;;4971631;28;20839;-69
2022/01/06 04:31:08;;;;;;;1.17;0.80;;;;;;;;;;4971227;28;21047;-69
2022/01/06 04:33:35;;;;;;;1.20;0.70;;;;;;;;;;4971356;28;20451;-70
2022/01/06 04:36:01;;;;;;;1.60;0.80;;;;;;;;;;4971394;28;21224;-69
2022/01/06 04:38:28;;;;;;;3.03;1.20;;;;;;;;;;4971531;28;20481;-70
2022/01/06 04:40:56;;;;;;;5.47;2.30;;;;;;;;;;4971435;28;20442;-69
2022/01/06 04:43:23;;;;;;;2.07;1.40;;;;;;;;;;4971044;28;20441;-70
2022/01/06 04:45:50;;;;;;;1.60;0.77;;;;;;;;;;4968674;28;20979;-70
2022/01/06 04:48:16;;;;;;;1.83;1.07;;;;;;;;;;4969827;28;20777;-70
2022/01/06 04:50:43;;;;;;;3.80;1.37;;;;;;;;;;4971177;28;20449;-69
2022/01/06 04:53:10;;;;;;;1.10;0.70;;;;;;;;;;4969763;28;20433;-69
2022/01/06 04:55:36;;;;;;;1.73;0.87;;;;;;;;;;4970293;28;20958;-70
2022/01/06 04:58:03;;;;;;;1.60;1.10;;;;;;;;;;4970712;28;20552;-69
2022/01/06 05:00:29;;;;;;;1.87;0.90;;;;;;;;;;4970927;28;20451;-69
2022/01/06 05:02:56;;;;;;;2.03;0.80;;;;;;;;;;4970784;28;20536;-69
2022/01/06 05:05:23;;;;;;;2.80;1.27;;;;;;;;;;4971025;28;20446;-69
2022/01/06 05:07:49;;;;;;;2.13;1.30;;;;;;;;;;4970311;28;20517;-70
2022/01/06 05:10:16;;;;;;;2.83;1.10;;;;;;;;;;4971072;28;20479;-70
2022/01/06 05:12:43;;;;;;;1.67;1.17;;;;;;;;;;4971113;28;20999;-69
2022/01/06 05:15:10;;;;;;;1.40;0.63;;;;;;;;;;4969551;28;20445;-69
2022/01/06 05:17:37;;;;;;;1.63;0.50;;;;;;;;;;4970651;28;20486;-69
2022/01/06 05:20:04;;;;;;;1.90;0.90;;;;;;;;;;4970858;28;20424;-69
2022/01/06 05:22:31;;;;;;;0.77;0.47;;;;;;;;;;4968572;28;20476;-69
2022/01/06 05:24:58;;;;;;;0.97;0.50;;;;;;;;;;4970639;28;20447;-69
2022/01/06 05:27:24;;;;;;;1.17;0.50;;;;;;;;;;4970506;28;20433;-69
2022/01/06 05:29:51;;;;;;;1.40;0.67;;;;;;;;;;4970680;28;20550;-69
2022/01/06 05:32:18;;;;;;;1.03;0.80;;;;;;;;;;4969640;28;20438;-69
2022/01/06 05:34:44;;;;;;;2.43;0.97;;;;;;;;;;4971140;28;20429;-69
2022/01/06 05:37:11;;;;;;;1.40;0.90;;;;;;;;;;4970577;28;20485;-69
2022/01/06 05:39:37;;;;;;;1.33;0.90;;;;;;;;;;4969631;28;20480;-69
2022/01/06 05:42:04;;;;;;;2.77;1.00;;;;;;;;;;4969349;28;20961;-69
2022/01/06 05:44:33;;;;;;;1.30;0.97;;;;;;;;;;4970034;28;20446;-69
2022/01/06 05:47:01;;;;;;;1.80;1.10;;;;;;;;;;4957284;28;20959;-69
2022/01/06 05:49:28;;;;;;;2.07;1.23;;;;;;;;;;4974853;28;20456;-69
2022/01/06 05:51:54;;;;;;;1.70;1.50;;;;;;;;;;4974269;28;20448;-69
2022/01/06 05:54:21;;;;;;;2.37;1.70;;;;;;;;;;4973857;28;20444;-69
2022/01/06 05:56:47;;;;;;;2.23;1.37;;;;;;;;;;4974158;28;20464;-69
2022/01/06 05:59:14;;;;;;;5.70;1.60;;;;;;;;;;4973986;28;20824;-69
2022/01/06 06:01:41;;;;;;;3.00;0.80;;;;;;;;;;4972659;28;20975;-69
2022/01/06 06:04:07;;;;;;;0.90;0.70;;;;;;;;;;4974131;28;20843;-69
2022/01/06 06:06:34;;;;;;;1.73;0.80;;;;;;;;;;4974035;28;20440;-69
2022/01/06 06:09:01;;;;;;;1.33;0.50;;;;;;;;;;4974077;28;20789;-69
2022/01/06 06:11:27;;;;;;;0.77;0.70;;;;;;;;;;4961645;28;20460;-69
2022/01/06 06:13:54;;;;;;;1.47;0.73;;;;;;;;;;4965524;28;20555;-68
2022/01/06 06:16:21;;;;;;;1.23;1.00;;;;;;;;;;4967354;28;20961;-68
2022/01/06 06:18:47;;;;;;;1.07;0.77;;;;;;;;;;4966645;28;20472;-69
2022/01/06 06:21:14;;;;;;;1.13;0.83;;;;;;;;;;4966989;28;20540;-69
2022/01/06 06:23:42;;;;;;;1.63;1.10;;;;;;;;;;4968727;28;20432;-68
2022/01/06 06:26:08;;;;;;;1.87;1.20;;;;;;;;;;4967601;28;20448;-68
2022/01/06 06:28:35;;;;;;;1.70;0.90;;;;;;;;;;4968409;28;20507;-69
2022/01/06 06:31:02;;;;;;;2.30;0.80;;;;;;;;;;4967431;28;20487;-67
2022/01/06 06:33:29;;;;;;;2.13;0.80;;;;;;;;;;4967741;28;20535;-67
2022/01/06 06:35:55;;;;;;;1.20;0.67;;;;;;;;;;4967199;28;20481;-67
2022/01/06 06:38:23;;;;;;;2.23;0.70;;;;;;;;;;4967093;28;20484;-67
2022/01/06 06:40:49;;;;;;;1.40;0.70;;;;;;;;;;4968475;28;20444;-68
2022/01/06 06:43:16;;;;;;;1.33;0.60;;;;;;;;;;4967679;28;20872;-68
2022/01/06 06:45:43;;;;;;;1.33;0.50;;;;;;;;;;4967068;28;20499;-67
2022/01/06 06:48:10;;;;;;;2.33;0.97;;;;;;;;;;4967547;28;21010;-68
2022/01/06 06:50:36;;;;;;;0.83;0.50;;;;;;;;;;4966523;28;20449;-67
2022/01/06 06:53:03;;;;;;;0.70;0.50;;;;;;;;;;4965922;28;20484;-67
2022/01/06 06:55:30;;;;;;;0.87;0.30;;;;;;;;;;4967552;28;20907;-67
2022/01/06 06:57:56;;;;;;;0.40;0.30;;;;;;;;;;4966423;28;20441;-67
2022/01/06 07:00:23;;;;;;;1.53;0.60;;;;;;;;;;4965640;28;20445;-67
2022/01/06 07:02:50;;;;;;;1.10;0.50;;;;;;;;;;4967472;28;20437;-67
2022/01/06 07:05:16;;;;;;;0.70;0.70;;;;;;;;;;4966443;28;20475;-67
2022/01/06 07:07:43;;;;;;;2.30;1.07;;;;;;;;;;4966666;28;20971;-69
2022/01/06 07:10:10;;;;;;;0.60;0.40;;;;;;;;;;4967574;28;20452;-68
2022/01/06 07:12:45;;;;;;;1.00;0.90;;;;;;;;;;4967912;28;20793;-68
2022/01/06 07:15:13;;;;;;;0.93;0.60;;;;;;;;;;4967077;28;20536;-68
2022/01/06 07:17:40;;;;;;;1.47;0.80;;;;;;;;;;4965975;28;20909;-68
2022/01/06 07:20:07;;;;;;;1.30;0.60;;;;;;;;;;4965604;28;20591;-67
2022/01/06 07:22:33;;;;;;;1.00;0.60;;;;;;;;;;4965135;28;20558;-68
2022/01/06 07:25:01;;;;;;;0.87;0.50;;;;;;;;;;4967274;28;20436;-69
2022/01/06 07:27:28;;;;;;;0.90;0.47;;;;;;;;;;4964396;28;20788;-69
2022/01/06 07:29:55;;;;;;;1.07;0.50;;;;;;;;;;4965179;28;20463;-67
2022/01/06 07:32:21;;;;;;;2.27;0.63;;;;;;;;;;4966364;28;20441;-69
2022/01/06 07:34:48;;;;;;;6.50;3.57;;;;;;;;;;4966045;28;20487;-69
2022/01/06 07:37:14;;;;;;;7.37;4.63;;;;;;;;;;4966781;28;20495;-69
2022/01/06 07:39:41;;;;;;;2.10;1.57;;;;;;;;;;4972779;28;20503;-67
2022/01/06 07:42:08;;;;;;;3.20;1.50;;;;;;;;;;4965169;28;20956;-68
2022/01/06 07:44:35;;;;;;;2.13;1.70;;;;;;;;;;4964219;28;20495;-69
2022/01/06 07:47:02;;;;;;;4.00;1.90;;;;;;;;;;4966112;28;20463;-69
2022/01/06 07:49:29;;;;;;;4.20;2.50;;;;;;;;;;4967383;28;20437;-69
2022/01/06 07:51:56;;;;;;;5.50;2.87;;;;;;;;;;4964864;28;20444;-68
2022/01/06 07:54:25;;;;;;;4.70;2.47;;;;;;;;;;4965265;28;20555;-69
2022/01/06 07:56:51;;;;;;;7.40;4.57;;;;;;;;;;4964978;28;20445;-69
2022/01/06 07:59:18;;;;;;;5.17;3.40;;;;;;;;;;4964484;28;20485;-69
2022/01/06 08:01:45;;;;;;;7.23;4.10;;;;;;;;;;4966170;28;21054;-68
2022/01/06 08:04:12;;;;;;;3.80;3.17;;;;;;;;;;4965864;28;20824;-68
2022/01/06 08:06:38;;;;;;;3.43;2.00;;;;;;;;;;4966525;28;20437;-68
2022/01/06 08:09:05;;;;;;;3.40;2.00;;;;;;;;;;4965344;28;20453;-66
2022/01/06 08:11:31;;;;;;;3.33;2.03;;;;;;;;;;4966356;28;20429;-68
2022/01/06 08:13:58;;;;;;;4.97;3.10;;;;;;;;;;4966197;28;20475;-68
2022/01/06 08:16:25;;;;;;;4.33;2.27;;;;;;;;;;4966686;28;20448;-67
2022/01/06 08:18:51;;;;;;;6.70;2.97;;;;;;;;;;4964586;28;20575;-68
2022/01/06 08:21:18;;;;;;;3.80;2.40;;;;;;;;;;4966961;28;20437;-68
2022/01/06 08:23:45;;;;;;;5.50;3.00;;;;;;;;;;4966770;28;20429;-68
2022/01/06 08:26:15;;;;;;;4.77;2.10;;;;;;;;;;4966607;28;20413;-68
2022/01/06 08:28:42;;;;;;;4.47;1.93;;;;;;;;;;4964958;28;20880;-68
2022/01/06 08:31:09;;;;;;;3.30;1.90;;;;;;;;;;4965822;28;20876;-69
2022/01/06 08:33:36;;;;;;;3.37;1.93;;;;;;;;;;4966151;28;20436;-67
2022/01/06 08:36:03;;;;;;;2.17;1.33;;;;;;;;;;4964763;28;20531;-69
2022/01/06 08:38:29;;;;;;;2.83;1.50;;;;;;;;;;4978599;28;20457;-69
2022/01/06 08:40:56;;;;;;;3.80;2.00;;;;;;;;;;4965146;28;20445;-69
2022/01/06 08:43:27;;;;;;;4.37;1.80;;;;;;;;;;4983764;28;20455;-68
2022/01/06 08:45:55;;;;;;;4.33;2.20;;;;;;;;;;4969379;28;20449;-68
2022/01/06 08:48:23;;;;;;;2.80;1.50;;;;;;;;;;4970599;28;20487;-68
2022/01/06 08:50:50;;;;;;;3.33;1.90;;;;;;;;;;4970854;28;20437;-67
2022/01/06 08:53:16;;;;;;;3.63;1.80;;;;;;;;;;4971243;28;20437;-68
2022/01/06 08:55:46;;;;;;;5.10;2.00;;;;;;;;;;4970580;28;20444;-68
2022/01/06 08:58:14;;;;;;;4.00;2.00;;;;;;;;;;4967675;28;20468;-67
2022/01/06 09:00:41;;;;;;;4.27;2.20;;;;;;;;;;4966632;28;20519;-68
2022/01/06 09:03:08;;;;;;;5.23;2.93;;;;;;;;;;4965102;28;20436;-68
2022/01/06 09:05:36;;;;;;;5.23;2.20;;;;;;;;;;4956037;28;20521;-68
2022/01/06 09:08:03;;;;;;;3.23;1.80;;;;;;;;;;4984400;28;20467;-68
2022/01/06 09:10:33;;;;;;;3.83;1.70;;;;;;;;;;4970537;28;20817;-68
2022/01/06 09:13:20;;;;;;;5.07;2.57;;;;;;;;;;4980650;28;20441;-68
2022/01/06 09:15:46;;;;;;;3.33;1.93;;;;;;;;;;4968325;28;20429;-68
2022/01/06 09:18:13;;;;;;;3.43;1.70;;;;;;;;;;4970150;28;20998;-67
2022/01/06 09:20:40;;;;;;;8.67;3.97;;;;;;;;;;4969926;28;20503;-67
2022/01/06 09:23:07;;;;;;;8.30;3.67;;;;;;;;;;4974537;28;20446;-67
2022/01/06 09:25:33;;;;;;;5.83;3.27;;;;;;;;;;4974914;28;20417;-67
2022/01/06 09:28:00;;;;;;;3.10;2.10;;;;;;;;;;4970540;28;20449;-67
2022/01/06 09:30:27;;;;;;;3.60;1.80;;;;;;;;;;4974421;28;20460;-67
2022/01/06 09:32:54;;;;;;;3.73;1.83;;;;;;;;;;4973885;28;20436;-67
2022/01/06 09:35:21;;;;;;;3.33;2.20;;;;;;;;;;4964387;28;20499;-69
2022/01/06 09:37:48;;;;;;;10.47;5.03;;;;;;;;;;4973974;28;20455;-66
2022/01/06 09:40:15;;;;;;;3.60;1.87;;;;;;;;;;4973998;28;20468;-66
2022/01/06 09:42:42;;;;;;;3.57;2.53;;;;;;;;;;4970313;28;20465;-67
2022/01/06 09:45:09;;;;;;;2.57;1.60;;;;;;;;;;4989410;28;20435;-67
2022/01/06 09:47:37;;;;;;;5.13;2.33;;;;;;;;;;4973114;28;20440;-66
2022/01/06 09:50:06;;;;;;;2.23;1.67;;;;;;;;;;4974109;28;20947;-66
2022/01/06 09:52:34;;;;;;;5.83;4.10;;;;;;;;;;4960841;28;20545;-66
2022/01/06 09:55:03;;;;;;;110.83;58.40;;;;;;;;;;4971930;28;20437;-66
2022/01/06 09:57:31;;;;;;;45.97;22.83;;;;;;;;;;4973594;28;20449;-66
2022/01/06 09:59:57;;;;;;;3.00;1.87;;;;;;;;;;4973959;28;20553;-66
2022/01/06 10:02:34;;;;;;;12.07;5.97;;;;;;;;;;4974181;28;21014;-68
2022/01/06 10:05:02;;;;;;;9.77;5.37;;;;;;;;;;4973459;28;20436;-66
2022/01/06 10:07:36;;;;;;;2.77;1.60;;;;;;;;;;4971932;28;20431;-67
2022/01/06 10:10:03;;;;;;;6.40;2.37;;;;;;;;;;4965006;28;20533;-68
2022/01/06 10:12:31;;;;;;;107.70;53.60;;;;;;;;;;4969149;28;20524;-68
2022/01/06 10:14:59;;;;;;;4.37;2.33;;;;;;;;;;4969560;28;20530;-68
2022/01/06 10:17:30;;;;;;;33.13;17.93;;;;;;;;;;4973631;28;20459;-68
2022/01/06 10:20:07;;;;;;;5.13;2.60;;;;;;;;;;4971203;28;20471;-68
2022/01/06 10:22:45;;;;;;;5.83;3.17;;;;;;;;;;4969547;28;20935;-69
2022/01/06 10:25:12;;;;;;;5.23;1.87;;;;;;;;;;4972193;28;20429;-69
2022/01/06 10:27:41;;;;;;;2.90;2.00;;;;;;;;;;4971092;28;20443;-69
2022/01/06 10:30:08;;;;;;;4.27;2.33;;;;;;;;;;4964368;28;20452;-68
2022/01/06 10:32:37;;;;;;;5.67;2.60;;;;;;;;;;4972471;28;20464;-68
2022/01/06 10:35:04;;;;;;;6.40;2.53;;;;;;;;;;4973561;28;20940;-68
2022/01/06 10:37:31;;;;;;;3.90;2.30;;;;;;;;;;4962064;28;20437;-67
2022/01/06 10:39:59;;;;;;;6.63;3.70;;;;;;;;;;4969814;28;20884;-68
2022/01/06 10:42:30;;;;;;;2.60;1.60;;;;;;;;;;4968483;28;21180;-68
2022/01/06 10:45:05;;;;;;;3.23;1.60;;;;;;;;;;4965180;28;20437;-68
2022/01/06 10:47:32;;;;;;;3.23;1.27;;;;;;;;;;4967773;28;20433;-68
2022/01/06 10:50:11;;;;;;;4.93;3.20;;;;;;;;;;4970518;28;20426;-68
2022/01/06 10:52:40;;;;;;;13.43;7.33;;;;;;;;;;4969439;28;20479;-68
2022/01/06 10:55:19;;;;;;;5.00;2.63;;;;;;;;;;4966307;28;20872;-68
2022/01/06 10:57:50;;;;;;;2.23;1.30;;;;;;;;;;4972315;28;20804;-67
2022/01/06 11:00:17;;;;;;;2.60;1.27;;;;;;;;;;4971689;28;21051;-67
2022/01/06 11:02:50;;;;;;;3.10;1.70;;;;;;;;;;4973037;28;20546;-67
2022/01/06 11:05:17;;;;;;;3.17;2.07;;;;;;;;;;4973763;28;20522;-67
2022/01/06 11:07:44;;;;;;;3.77;2.40;;;;;;;;;;4988646;28;20432;-67
2022/01/06 11:10:16;;;;;;;3.90;1.90;;;;;;;;;;4956883;28;20540;-67
2022/01/06 11:12:43;;;;;;;3.03;1.70;;;;;;;;;;4968591;28;20515;-66
2022/01/06 11:15:10;;;;;;;3.63;1.30;;;;;;;;;;4975593;28;20825;-68
2022/01/06 11:17:37;;;;;;;3.33;1.70;;;;;;;;;;4975244;28;20540;-65
2022/01/06 11:20:04;;;;;;;2.47;1.23;;;;;;;;;;4975843;28;20559;-65
2022/01/06 11:22:31;;;;;;;5.23;2.10;;;;;;;;;;4975829;28;20429;-65
2022/01/06 11:25:03;;;;;;;3.57;1.97;;;;;;;;;;4975845;28;20515;-65
2022/01/06 11:27:31;;;;;;;4.23;2.90;;;;;;;;;;4975510;28;20441;-66
2022/01/06 11:30:07;;;;;;;3.37;1.50;;;;;;;;;;4975842;28;20433;-65
2022/01/06 11:32:34;;;;;;;3.50;1.20;;;;;;;;;;4975652;28;20440;-65
2022/01/06 11:35:05;;;;;;;3.77;2.10;;;;;;;;;;4975275;28;20433;-67
2022/01/06 11:37:39;;;;;;;3.40;1.93;;;;;;;;;;4975006;28;20912;-66
2022/01/06 11:40:31;;;;;;;6.83;2.30;;;;;;;;;;4985625;23;20860;-65
2022/01/06 11:42:58;;;;;;;5.60;2.60;;;;;;;;;;5014536;28;20450;-62
2022/01/06 11:45:25;;;;;;;5.27;2.83;;;;;;;;;;5020442;28;20945;-65
2022/01/06 11:47:59;;;;;;;4.97;2.60;;;;;;;;;;4996681;28;20482;-65
2022/01/06 11:50:26;;;;;;;7.30;2.93;;;;;;;;;;5011929;28;20450;-66
2022/01/06 11:52:53;;;;;;;7.60;2.83;;;;;;;;;;5020691;28;20564;-65
2022/01/06 11:55:20;;;;;;;7.17;3.00;;;;;;;;;;5010736;28;20479;-67
2022/01/06 11:57:47;;;;;;;4.87;2.53;;;;;;;;;;5012025;28;21009;-66
2022/01/06 12:00:29;;;;;;;8.00;3.07;;;;;;;;;;4974116;28;20488;-66
2022/01/06 12:03:04;;;;;;;6.90;2.80;;;;;;;;;;4998648;28;20441;-65
2022/01/06 12:05:42;;;;;;;4.23;2.27;;;;;;;;;;5023198;28;20450;-66
2022/01/06 12:08:10;;;;;;;6.90;3.87;;;;;;;;;;5001569;28;20506;-66
2022/01/06 12:10:43;;;;;;;5.53;2.93;;;;;;;;;;4995630;28;20439;-65
2022/01/06 12:13:12;;;;;;;6.23;2.90;;;;;;;;;;5009691;28;20514;-66
2022/01/06 12:15:51;;;;;;;9.60;3.43;;;;;;;;;;5016314;28;20458;-65
2022/01/06 12:18:25;;;;;;;9.63;4.67;;;;;;;;;;5000570;28;20446;-65
2022/01/06 12:20:53;;;;;;;4.27;2.67;;;;;;;;;;5015411;28;20509;-63
2022/01/06 12:23:20;;;;;;;10.80;4.00;;;;;;;;;;5006735;28;20458;-65
2022/01/06 12:25:53;;;;;;;6.83;3.00;;;;;;;;;;5010913;28;20455;-65
2022/01/06 12:28:20;;;;;;;6.63;3.20;;;;;;;;;;5011862;28;20496;-65
2022/01/06 12:30:47;;;;;;;6.97;2.50;;;;;;;;;;5003266;28;20451;-66
2022/01/06 12:33:18;;;;;;;6.70;3.50;;;;;;;;;;5008674;28;20501;-65
2022/01/06 12:35:48;;;;;;;4.93;2.07;;;;;;;;;;5006130;28;20542;-65
2022/01/06 12:38:15;;;;;;;7.07;2.63;;;;;;;;;;5010225;28;21020;-65
2022/01/06 12:40:43;;;;;;;4.03;2.00;;;;;;;;;;5020442;28;20495;-65
2022/01/06 12:43:31;;;;;;;5.10;1.70;;;;;;;;;;5008950;28;20439;-66
2022/01/06 12:46:01;;;;;;;6.33;2.50;;;;;;;;;;4997155;28;20962;-66
2022/01/06 12:48:29;;;;;;;4.10;1.83;;;;;;;;;;5010765;28;20442;-66
2022/01/06 12:50:56;;;;;;;8.90;3.03;;;;;;;;;;5011015;28;20522;-65
2022/01/06 12:53:24;;;;;;;6.03;3.20;;;;;;;;;;5010459;28;20435;-65
2022/01/06 12:55:51;;;;;;;7.90;3.63;;;;;;;;;;5012024;28;20501;-66
2022/01/06 12:58:25;;;;;;;25.70;10.03;;;;;;;;;;5010438;28;20438;-65
2022/01/06 13:00:53;;;;;;;7.20;3.03;;;;;;;;;;5010627;28;20482;-66
2022/01/06 13:03:27;;;;;;;8.03;3.90;;;;;;;;;;4997136;28;20466;-65
2022/01/06 13:05:54;;;;;;;11.90;6.37;;;;;;;;;;4995957;28;20459;-65
2022/01/06 13:08:21;;;;;;;10.33;4.37;;;;;;;;;;5009753;28;20435;-66
2022/01/06 13:10:48;;;;;;;7.43;3.43;;;;;;;;;;4996511;28;20443;-66
2022/01/06 13:13:15;;;;;;;10.60;4.50;;;;;;;;;;5000007;28;20446;-66
2022/01/06 13:15:42;;;;;;;10.87;5.43;;;;;;;;;;4992487;28;20428;-67
2022/01/06 13:18:09;;;;;;;7.30;3.03;;;;;;;;;;5009624;28;20610;-66
2022/01/06 13:20:39;;;;;;;8.30;3.70;;;;;;;;;;5009996;28;20481;-66
2022/01/06 13:23:41;;;;;;;6.40;4.00;;;;;;;;;;4992846;28;20932;-66
2022/01/06 13:26:06;;;;;;;5.57;2.47;;;;;;;;;;5002326;28;20448;-66
2022/01/06 13:28:34;;;;;;;13.27;6.60;;;;;;;;;;5004375;28;20443;-66
2022/01/06 13:31:01;;;;;;;31.80;12.63;;;;;;;;;;5009870;28;20822;-66
2022/01/06 13:33:32;;;;;;;8.73;3.87;;;;;;;;;;5009585;28;20443;-66
2022/01/06 13:36:01;;;;;;;37.57;16.50;;;;;;;;;;5009546;28;20945;-66
2022/01/06 13:38:32;;;;;;;8.17;5.43;;;;;;;;;;5010102;28;20451;-65
2022/01/06 13:41:01;;;;;;;20.70;11.70;;;;;;;;;;5008098;28;21051;-66
2022/01/06 13:43:29;;;;;;;17.83;9.00;;;;;;;;;;5009472;28;20446;-66
2022/01/06 13:46:06;;;;;;;11.57;6.40;;;;;;;;;;5018616;28;20691;-65
2022/01/06 13:48:40;;;;;;;6.40;3.77;;;;;;;;;;5011684;28;21007;-65
2022/01/06 13:51:09;;;;;;;7.07;3.87;;;;;;;;;;5022043;28;20427;-65
2022/01/06 13:53:36;;;;;;;5.10;2.40;;;;;;;;;;5019531;28;20434;-64
2022/01/06 13:56:08;;;;;;;5.67;3.50;;;;;;;;;;5015303;28;20446;-64
2022/01/06 13:58:37;;;;;;;8.23;3.40;;;;;;;;;;5011430;28;20439;-64
2022/01/06 14:01:05;;;;;;;5.87;2.33;;;;;;;;;;5024271;28;20474;-64
2022/01/06 14:03:33;;;;;;;9.83;5.53;;;;;;;;;;4998467;28;20496;-64
2022/01/06 14:06:05;;;;;;;8.13;4.07;;;;;;;;;;5007340;28;20459;-65
2022/01/06 14:08:32;;;;;;;8.77;4.03;;;;;;;;;;5011429;28;20454;-65
2022/01/06 14:10:59;;;;;;;4.53;2.50;;;;;;;;;;5014793;28;20625;-65
2022/01/06 14:13:26;;;;;;;4.73;1.70;;;;;;;;;;5022688;28;20955;-66
2022/01/06 14:15:53;;;;;;;5.77;2.80;;;;;;;;;;5002237;28;20497;-66
2022/01/06 14:18:21;;;;;;;5.37;2.50;;;;;;;;;;4999454;28;20526;-65
2022/01/06 14:20:48;;;;;;;8.53;3.53;;;;;;;;;;5028518;28;20545;-65
2022/01/06 14:23:15;;;;;;;21.20;8.97;;;;;;;;;;5018857;28;20435;-66
2022/01/06 14:25:45;;;;;;;20.73;6.50;;;;;;;;;;5020615;28;20441;-65
2022/01/06 14:28:13;;;;;;;14.10;5.97;;;;;;;;;;4996169;28;21019;-65
2022/01/06 14:30:41;;;;;;;6.97;3.93;;;;;;;;;;5028787;28;20431;-66
2022/01/06 14:33:08;;;;;;;8.53;3.90;;;;;;;;;;5019396;28;20457;-65
2022/01/06 14:35:36;;;;;;;4.43;2.23;;;;;;;;;;5011623;28;20441;-65
2022/01/06 14:38:20;;;;;;;5.83;2.50;;;;;;;;;;5008344;28;20446;-66
2022/01/06 14:40:48;;;;;;;4.67;2.20;;;;;;;;;;5015276;28;20919;-65
2022/01/06 14:43:15;;;;;;;4.37;2.50;;;;;;;;;;5017468;28;20440;-64
2022/01/06 14:45:43;;;;;;;7.10;3.00;;;;;;;;;;5010705;28;20441;-65
2022/01/06 14:48:09;;;;;;;4.80;2.57;;;;;;;;;;5025098;28;21300;-64
2022/01/06 14:50:37;;;;;;;5.53;3.00;;;;;;;;;;5028262;28;20832;-64
2022/01/06 14:53:04;;;;;;;6.30;2.73;;;;;;;;;;5010059;28;20942;-64
2022/01/06 14:55:31;;;;;;;4.37;1.90;;;;;;;;;;5016445;28;20442;-65
2022/01/06 14:57:59;;;;;;;6.83;2.57;;;;;;;;;;5012443;28;20548;-65
2022/01/06 15:00:26;;;;;;;4.27;2.47;;;;;;;;;;5026171;28;20953;-64
2022/01/06 15:02:53;;;;;;;5.23;2.37;;;;;;;;;;5013993;28;20450;-64
2022/01/06 15:05:20;;;;;;;10.43;2.93;;;;;;;;;;5021431;28;20447;-65
2022/01/06 15:07:47;;;;;;;4.47;2.67;;;;;;;;;;5011947;28;21076;-65
2022/01/06 15:10:14;;;;;;;5.87;2.50;;;;;;;;;;5023730;28;20469;-65
2022/01/06 15:12:41;;;;;;;6.90;2.17;;;;;;;;;;5001796;28;20495;-64
2022/01/06 15:15:09;;;;;;;4.77;2.27;;;;;;;;;;5006357;28;20802;-64
2022/01/06 15:17:36;;;;;;;5.17;2.60;;;;;;;;;;5005169;28;20442;-65
2022/01/06 15:20:04;;;;;;;5.73;2.40;;;;;;;;;;4993446;28;20441;-64
2022/01/06 15:22:31;;;;;;;8.03;2.67;;;;;;;;;;5011896;28;20450;-64
2022/01/06 15:24:59;;;;;;;6.77;2.93;;;;;;;;;;5011810;28;20843;-64
2022/01/06 15:27:26;;;;;;;5.57;2.50;;;;;;;;;;4994859;28;20447;-65
2022/01/06 15:29:53;;;;;;;8.37;3.27;;;;;;;;;;5011340;28;20806;-66